createdAt,value
2018-07-16T00:00:07.697Z,74.16
2018-07-16T00:01:17.772Z,73.96
2018-07-16T00:02:27.592Z,74
2018-07-16T00:03:37.402Z,74.35
2018-07-16T00:04:47.224Z,74.1
2018-07-16T00:05:57.308Z,73.86
2018-07-16T00:07:07.136Z,73.9
2018-07-16T00:08:17.210Z,73.8
2018-07-16T00:09:27.088Z,73.77
2018-07-16T00:10:37.156Z,73.9
2018-07-16T00:11:47.222Z,73.86
2018-07-16T00:12:57.034Z,74.06
2018-07-16T00:14:07.125Z,73.86
2018-07-16T00:15:17.197Z,73.8
2018-07-16T00:16:27.286Z,74.1
2018-07-16T00:17:37.364Z,73.86
2018-07-16T00:18:46.917Z,73.96
2018-07-16T00:19:57.003Z,73.96
2018-07-16T00:21:06.854Z,74.64
2018-07-16T00:22:16.655Z,74.54
2018-07-16T00:23:26.768Z,74.44
2018-07-16T00:24:36.581Z,74.44
2018-07-16T00:25:46.387Z,73.96
2018-07-16T00:26:56.529Z,73.96
2018-07-16T00:28:06.337Z,74.06
2018-07-16T00:29:16.405Z,73.77
2018-07-16T00:30:26.474Z,74.25
2018-07-16T00:31:36.548Z,73.96
2018-07-16T00:32:46.622Z,73.96
2018-07-16T00:33:56.740Z,74.25
2018-07-16T00:35:06.816Z,73.77
2018-07-16T00:36:16.889Z,73.96
2018-07-16T00:37:26.950Z,74.06
2018-07-16T00:38:37.064Z,73.96
2018-07-16T00:39:46.862Z,74.6
2018-07-16T00:40:56.954Z,74.51
2018-07-16T00:42:07.032Z,74.6
2018-07-16T00:43:17.093Z,74.6
2018-07-16T00:44:27.419Z,74.6
2018-07-16T00:45:37.719Z,74.51
2018-07-16T00:46:47.798Z,74.31
2018-07-16T00:47:57.621Z,74.51
2018-07-16T00:49:07.432Z,74.6
2018-07-16T00:50:17.240Z,74.6
2018-07-16T00:51:27.317Z,74.47
2018-07-16T00:52:37.392Z,74.41
2018-07-16T00:53:47.208Z,74.27
2018-07-16T00:54:57.292Z,74.37
2018-07-16T00:56:07.401Z,74.21
2018-07-16T00:57:17.479Z,74.02
2018-07-16T00:58:27.565Z,73.93
2018-07-16T00:59:37.634Z,74.12
2018-07-16T01:00:47.489Z,73.93
2018-07-16T01:01:57.543Z,73.83
2018-07-16T01:03:07.615Z,73.89
2018-07-16T01:04:17.694Z,73.79
2018-07-16T01:05:27.504Z,73.93
2018-07-16T01:06:37.331Z,74.41
2018-07-16T01:07:47.400Z,73.89
2018-07-16T01:08:57.221Z,73.99
2018-07-16T01:10:07.295Z,74.37
2018-07-16T01:11:17.370Z,74.27
2018-07-16T01:12:27.190Z,74.66
2018-07-16T01:13:37.244Z,74.47
2018-07-16T01:14:47.318Z,74.47
2018-07-16T01:15:57.396Z,74.57
2018-07-16T01:17:07.208Z,74.27
2018-07-16T01:18:17.264Z,74.37
2018-07-16T01:19:27.339Z,74.37
2018-07-16T01:20:37.423Z,74.37
2018-07-16T01:21:47.220Z,74.37
2018-07-16T01:22:57.280Z,74.47
2018-07-16T01:24:07.100Z,74.37
2018-07-16T01:25:17.181Z,74.43
2018-07-16T01:26:27.263Z,74.24
2018-07-16T01:27:37.077Z,74.47
2018-07-16T01:28:47.147Z,74.43
2018-07-16T01:29:56.969Z,74.43
2018-07-16T01:31:07.063Z,74.43
2018-07-16T01:32:17.186Z,74.43
2018-07-16T01:33:27.240Z,74.05
2018-07-16T01:34:37.302Z,74.33
2018-07-16T01:35:46.842Z,74.52
2018-07-16T01:36:56.917Z,73.95
2018-07-16T01:38:06.724Z,74.33
2018-07-16T01:39:16.536Z,73.85
2018-07-16T01:40:26.602Z,74.05
2018-07-16T01:41:36.706Z,74.52
2018-07-16T01:42:46.801Z,74.33
2018-07-16T01:43:56.612Z,74.52
2018-07-16T01:45:06.699Z,73.85
2018-07-16T01:46:16.759Z,74.49
2018-07-16T01:47:26.299Z,74.62
2018-07-16T01:48:36.361Z,74.33
2018-07-16T01:49:46.426Z,74.3
2018-07-16T01:50:55.715Z,74.3
2018-07-16T01:52:05.534Z,74.49
2018-07-16T01:53:15.601Z,74.3
2018-07-16T01:54:25.395Z,74.2
2018-07-16T01:55:35.460Z,74.3
2018-07-16T01:56:45.538Z,74.3
2018-07-16T01:57:55.603Z,74.4
2018-07-16T01:59:05.676Z,74.3
2018-07-16T02:00:15.748Z,74.2
2018-07-16T02:01:25.850Z,74.3
2018-07-16T02:02:35.681Z,74.3
2018-07-16T02:03:45.747Z,73.91
2018-07-16T02:04:55.826Z,74.49
2018-07-16T02:06:05.900Z,74.49
2018-07-16T02:07:15.991Z,73.72
2018-07-16T02:08:26.054Z,73.82
2018-07-16T02:09:36.129Z,73.72
2018-07-16T02:10:46.184Z,73.82
2018-07-16T02:11:56.324Z,74.4
2018-07-16T02:13:06.409Z,73.82
2018-07-16T02:14:15.958Z,73.72
2018-07-16T02:15:26.042Z,74.49
2018-07-16T02:16:35.854Z,74.01
2018-07-16T02:17:45.672Z,74.4
2018-07-16T02:18:55.753Z,74.49
2018-07-16T02:20:05.839Z,74.3
2018-07-16T02:21:15.933Z,73.82
2018-07-16T02:22:26.050Z,74.3
2018-07-16T02:23:36.237Z,74.4
2018-07-16T02:24:46.067Z,74.45
2018-07-16T02:25:56.135Z,74.49
2018-07-16T02:27:06.210Z,73.82
2018-07-16T02:28:16.032Z,73.72
2018-07-16T02:29:26.172Z,73.82
2018-07-16T02:30:36.261Z,73.82
2018-07-16T02:31:46.335Z,73.82
2018-07-16T02:32:56.406Z,73.62
2018-07-16T02:34:06.494Z,73.72
2018-07-16T02:35:16.641Z,73.58
2018-07-16T02:36:26.719Z,73.72
2018-07-16T02:37:36.793Z,73.88
2018-07-16T02:38:46.879Z,73.82
2018-07-16T02:39:58.248Z,73.82
2018-07-16T02:41:08.371Z,73.78
2018-07-16T02:42:18.465Z,74.01
2018-07-16T02:43:28.268Z,73.53
2018-07-16T02:44:38.328Z,73.78
2018-07-16T02:45:48.145Z,74.07
2018-07-16T02:46:58.247Z,73.58
2018-07-16T02:48:08.322Z,73.72
2018-07-16T02:49:18.384Z,73.72
2018-07-16T02:50:28.461Z,73.68
2018-07-16T02:51:38.538Z,73.82
2018-07-16T02:52:48.370Z,74.01
2018-07-16T02:53:58.438Z,74.3
2018-07-16T02:55:08.531Z,73.91
2018-07-16T02:56:18.736Z,74.01
2018-07-16T02:57:28.899Z,74.49
2018-07-16T02:58:38.982Z,74.45
2018-07-16T02:59:48.806Z,74.36
2018-07-16T03:00:58.635Z,74.45
2018-07-16T03:02:08.451Z,73.78
2018-07-16T03:35:17.088Z,69.02
2018-07-16T03:36:27.150Z,69.4
2018-07-16T03:37:36.687Z,69.69
2018-07-16T03:38:46.740Z,70.07
2018-07-16T03:39:56.794Z,70.75
2018-07-16T03:41:06.861Z,71.52
2018-07-16T03:42:16.664Z,72
2018-07-16T03:43:26.741Z,72.29
2018-07-16T03:44:36.822Z,72.23
2018-07-16T03:45:46.891Z,72.8
2018-07-16T03:46:57.000Z,72.61
2018-07-16T03:48:06.894Z,73.03
2018-07-16T03:49:16.855Z,72.94
2018-07-16T03:50:26.931Z,72.84
2018-07-16T03:51:37.014Z,73.22
2018-07-16T03:52:47.128Z,73.26
2018-07-16T03:53:57.194Z,73.16
2018-07-16T03:55:07.006Z,73.07
2018-07-16T03:56:16.582Z,73.01
2018-07-16T03:57:26.660Z,73.58
2018-07-16T03:58:36.782Z,73.01
2018-07-16T03:59:46.835Z,73.53
2018-07-16T04:00:56.648Z,73.78
2018-07-16T04:02:06.721Z,73.24
2018-07-16T04:03:16.545Z,73.43
2018-07-16T04:04:26.403Z,73.33
2018-07-16T04:05:36.492Z,73.33
2018-07-16T04:06:46.294Z,73.14
2018-07-16T04:07:56.104Z,73.57
2018-07-16T04:09:06.167Z,73.57
2018-07-16T04:10:16.233Z,73.47
2018-07-16T04:11:26.045Z,73.08
2018-07-16T04:12:36.134Z,73.47
2018-07-16T04:13:46.038Z,73.02
2018-07-16T04:14:56.110Z,72.92
2018-07-16T04:16:06.229Z,73.11
2018-07-16T04:17:16.302Z,73.02
2018-07-16T04:18:26.118Z,73.02
2018-07-16T04:19:35.933Z,73.06
2018-07-16T04:20:45.996Z,73.25
2018-07-16T04:21:56.062Z,73.25
2018-07-16T04:23:06.131Z,72.77
2018-07-16T04:24:16.196Z,72.96
2018-07-16T04:25:26.021Z,72.67
2018-07-16T04:26:36.116Z,72.86
2018-07-16T04:27:46.185Z,72.22
2018-07-16T04:28:55.998Z,69.53
2018-07-16T04:30:05.852Z,67.98
2018-07-16T04:31:15.665Z,66.47
2018-07-16T04:32:25.747Z,66.27
2018-07-16T04:33:35.562Z,65.37
2018-07-16T04:34:45.628Z,64.94
2018-07-16T04:35:55.721Z,64.32
2018-07-16T04:37:05.807Z,64.39
2018-07-16T04:38:15.886Z,64.03
2018-07-16T04:39:25.991Z,64.39
2018-07-16T04:40:35.549Z,63.54
2018-07-16T04:41:45.359Z,63.86
2018-07-16T04:42:55.450Z,64.48
2018-07-16T04:44:05.040Z,64.12
2018-07-16T04:45:14.856Z,64.34
2018-07-16T04:46:24.681Z,64.54
2018-07-16T04:47:34.832Z,64.47
2018-07-16T04:48:44.651Z,64.61
2018-07-16T04:49:54.740Z,64.44
2018-07-16T04:51:04.615Z,64.44
2018-07-16T04:52:14.704Z,64.47
2018-07-16T04:53:24.791Z,64.5
2018-07-16T04:54:34.587Z,64.4
2018-07-16T04:55:44.671Z,63.81
2018-07-16T04:56:54.248Z,64.53
2018-07-16T04:58:03.819Z,64.24
2018-07-16T04:59:13.905Z,64.07
2018-07-16T05:00:23.713Z,64.37
2018-07-16T05:01:33.794Z,63.98
2018-07-16T05:02:43.658Z,63.91
2018-07-16T05:03:53.735Z,64.3
2018-07-16T05:05:03.580Z,64.11
2018-07-16T05:06:12.866Z,64.2
2018-07-16T05:07:22.951Z,64.11
2018-07-16T05:08:33.018Z,64.01
2018-07-16T05:09:43.092Z,64.53
2018-07-16T05:10:52.905Z,64.33
2018-07-16T05:12:02.789Z,63.78
2018-07-16T05:13:12.886Z,63.87
2018-07-16T05:14:22.705Z,63.7
2018-07-16T05:15:32.790Z,63.81
2018-07-16T05:16:42.854Z,63.51
2018-07-16T05:17:52.933Z,63.9
2018-07-16T05:19:03.194Z,63.73
2018-07-16T05:20:13.282Z,63.84
2018-07-16T05:21:23.130Z,63.64
2018-07-16T05:22:33.002Z,63.96
2018-07-16T05:23:43.149Z,63.87
2018-07-16T05:24:53.233Z,64.16
2018-07-16T05:26:03.314Z,63.7
2018-07-16T05:27:13.408Z,63.73
2018-07-16T05:28:23.496Z,64
2018-07-16T05:29:33.563Z,64.22
2018-07-16T05:30:43.625Z,63.63
2018-07-16T05:31:54.191Z,65.08
2018-07-16T05:33:04.769Z,64.85
2018-07-16T05:34:14.853Z,65.8
2018-07-16T05:35:24.932Z,65.38
2018-07-16T05:36:35.022Z,65.87
2018-07-16T05:37:45.121Z,66.36
2018-07-16T05:38:55.195Z,66.24
2018-07-16T05:40:04.997Z,65.64
2018-07-16T05:41:14.824Z,65.28
2018-07-16T05:42:24.900Z,65.28
2018-07-16T05:43:34.764Z,65.18
2018-07-16T05:44:44.581Z,65.01
2018-07-16T05:45:54.647Z,65.01
2018-07-16T05:47:04.462Z,64.95
2018-07-16T05:48:14.549Z,65.05
2018-07-16T05:49:24.692Z,65.11
2018-07-16T05:50:34.769Z,66.36
2018-07-16T05:51:44.866Z,67.08
2018-07-16T05:52:54.951Z,67.71
2018-07-16T05:54:05.049Z,68.37
2018-07-16T05:55:15.156Z,68.13
2018-07-16T05:56:25.246Z,67.84
2018-07-16T05:57:35.319Z,67.55
2018-07-16T05:58:45.404Z,67.09
2018-07-16T05:59:55.472Z,67.29
2018-07-16T06:01:05.544Z,67.29
2018-07-16T06:02:15.629Z,66.6
2018-07-16T06:03:25.705Z,66.69
2018-07-16T06:04:35.792Z,66.69
2018-07-16T06:05:45.863Z,66.6
2018-07-16T06:06:55.947Z,66.79
2018-07-16T06:08:06.010Z,66.6
2018-07-16T06:09:15.559Z,66.79
2018-07-16T06:10:25.099Z,66.6
2018-07-16T06:11:35.168Z,66.3
2018-07-16T06:12:45.257Z,66.53
2018-07-16T06:13:55.082Z,66.24
2018-07-16T06:15:05.206Z,67.12
2018-07-16T06:16:15.269Z,66.53
2018-07-16T06:17:25.348Z,65.94
2018-07-16T06:18:35.177Z,65.84
2018-07-16T06:19:45.332Z,65.97
2018-07-16T06:20:55.147Z,66.27
2018-07-16T06:22:05.214Z,66.63
2018-07-16T06:23:15.301Z,67.38
2018-07-16T06:24:25.412Z,68.33
2018-07-16T06:25:35.489Z,68.76
2018-07-16T06:26:45.298Z,69.12
2018-07-16T06:27:55.388Z,69.18
2018-07-16T06:29:05.465Z,69.64
2018-07-16T06:30:15.590Z,69.64
2018-07-16T06:31:25.679Z,70.09
2018-07-16T06:32:35.768Z,70.09
2018-07-16T06:33:45.868Z,69.96
2018-07-16T06:34:55.687Z,69.86
2018-07-16T06:36:05.773Z,69.96
2018-07-16T06:37:15.872Z,70.12
2018-07-16T06:38:25.951Z,70.09
2018-07-16T06:39:36.170Z,70.18
2018-07-16T06:40:47.278Z,69.92
2018-07-16T06:41:58.497Z,69.73
2018-07-16T06:43:08.337Z,69.24
2018-07-16T06:44:18.423Z,69.14
2018-07-16T06:45:28.567Z,69.14
2018-07-16T06:46:38.651Z,69.24
2018-07-16T06:47:48.861Z,68.75
2018-07-16T06:48:59.330Z,69.21
2018-07-16T06:50:09.417Z,69.21
2018-07-16T06:51:19.284Z,69.4
2018-07-16T06:52:29.366Z,69.21
2018-07-16T06:53:39.196Z,68.82
2018-07-16T06:54:49.023Z,69.21
2018-07-16T06:55:59.099Z,69.21
2018-07-16T06:57:08.962Z,69.04
2018-07-16T06:58:18.783Z,69.14
2018-07-16T06:59:28.611Z,68.65
2018-07-16T07:00:38.728Z,68.95
2018-07-16T07:01:48.810Z,68.68
2018-07-16T07:02:58.903Z,68.72
2018-07-16T07:04:09.014Z,68.23
2018-07-16T07:05:19.487Z,68.13
2018-07-16T07:06:29.549Z,67.97
2018-07-16T07:07:39.660Z,68.16
2018-07-16T07:08:49.753Z,68.36
2018-07-16T07:09:59.973Z,68.26
2018-07-16T07:11:10.444Z,68.16
2018-07-16T07:12:20.561Z,68.75
2018-07-16T07:13:30.658Z,68.75
2018-07-16T07:14:40.743Z,68.62
2018-07-16T07:15:50.580Z,68.52
2018-07-16T07:17:00.683Z,69.37
2018-07-16T07:18:10.844Z,68.88
2018-07-16T07:19:21.364Z,69.47
2018-07-16T07:20:31.461Z,69.08
2018-07-16T07:21:41.319Z,69.37
2018-07-16T07:22:51.425Z,69.27
2018-07-16T07:24:01.260Z,69.08
2018-07-16T07:25:11.359Z,68.98
2018-07-16T07:26:21.620Z,69.14
2018-07-16T07:27:31.726Z,69.04
2018-07-16T07:28:41.815Z,69.43
2018-07-16T07:29:51.977Z,69.53
2018-07-16T07:31:02.087Z,69.34
2018-07-16T07:32:12.183Z,69.53
2018-07-16T07:33:22.013Z,69.34
2018-07-16T07:34:31.880Z,69.53
2018-07-16T07:35:42.249Z,69.53
2018-07-16T07:36:52.910Z,69.43
2018-07-16T07:38:03.034Z,69.24
2018-07-16T07:39:13.135Z,69.73
2018-07-16T07:40:23.252Z,69.73
2018-07-16T07:41:33.086Z,69.73
2018-07-16T07:42:42.664Z,69.7
2018-07-16T07:43:52.760Z,69.04
2018-07-16T07:45:02.568Z,69.24
2018-07-16T07:46:12.434Z,69.37
2018-07-16T07:47:22.721Z,69.47
2018-07-16T07:48:32.821Z,69.27
2018-07-16T07:49:42.948Z,68.23
2018-07-16T07:50:53.084Z,69.01
2018-07-16T07:52:03.226Z,68.62
2018-07-16T07:53:13.064Z,68.75
2018-07-16T07:54:23.300Z,68.85
2018-07-16T07:55:34.644Z,68.62
2018-07-16T07:56:44.614Z,68.91
2018-07-16T07:57:54.436Z,69.08
2018-07-16T07:59:04.533Z,69.4
2018-07-16T08:00:14.710Z,68.82
2018-07-16T08:01:24.827Z,68.72
2018-07-16T08:02:34.923Z,68.91
2018-07-16T08:03:45.020Z,69.31
2018-07-16T08:04:55.091Z,69.31
2018-07-16T08:06:05.201Z,69.11
2018-07-16T08:07:15.319Z,68.78
2018-07-16T08:08:25.429Z,69.79
2018-07-16T08:09:35.534Z,69.57
2018-07-16T08:10:45.667Z,70.25
2018-07-16T08:11:55.822Z,69.76
2018-07-16T08:13:05.724Z,69.86
2018-07-16T08:14:15.342Z,70.25
2018-07-16T08:15:25.471Z,70.12
2018-07-16T08:16:35.615Z,71
2018-07-16T08:17:45.836Z,70.77
2018-07-16T08:18:56.012Z,70.57
2018-07-16T08:20:06.221Z,70.38
2018-07-16T08:21:16.363Z,70.38
2018-07-16T08:22:26.499Z,70.38
2018-07-16T08:23:36.415Z,70.25
2018-07-16T08:24:45.997Z,70.57
2018-07-16T08:25:56.154Z,70.67
2018-07-16T08:27:06.337Z,70.67
2018-07-16T08:28:16.853Z,70.09
2018-07-16T08:29:26.933Z,69.89
2018-07-16T08:30:37.075Z,69.89
2018-07-16T08:31:46.976Z,70.18
2018-07-16T08:32:57.139Z,70.02
2018-07-16T08:34:07.317Z,69.63
2018-07-16T08:35:17.466Z,70.12
2018-07-16T08:36:27.337Z,69.43
2018-07-16T08:37:37.201Z,69.27
2018-07-16T08:38:47.113Z,69.27
2018-07-16T08:39:57.327Z,68.82
2018-07-16T08:41:07.459Z,68.82
2018-07-16T08:42:17.621Z,68.46
2018-07-16T08:43:27.747Z,68.33
2018-07-16T08:44:37.657Z,67.87
2018-07-16T08:45:47.284Z,68.01
2018-07-16T08:46:57.372Z,67.51
2018-07-16T08:48:07.449Z,67.35
2018-07-16T08:49:17.524Z,67.38
2018-07-16T08:50:27.678Z,67.38
2018-07-16T08:51:37.513Z,67.38
2018-07-16T08:52:47.678Z,67.68
2018-07-16T08:53:57.951Z,67.87
2018-07-16T08:55:08.042Z,68.07
2018-07-16T08:56:18.175Z,68.17
2018-07-16T08:57:28.281Z,68.52
2018-07-16T08:58:38.114Z,68.49
2018-07-16T08:59:48.239Z,68.92
2018-07-16T09:00:58.619Z,69.09
2018-07-16T09:02:08.717Z,69.38
2018-07-16T09:03:18.549Z,69.09
2018-07-16T09:04:28.653Z,68.88
2018-07-16T09:05:38.769Z,68.79
2018-07-16T09:06:48.905Z,68.76
2018-07-16T09:07:59.017Z,68.76
2018-07-16T09:09:09.208Z,68.76
2018-07-16T09:10:19.319Z,69.44
2018-07-16T09:11:29.413Z,69.24
2018-07-16T09:12:39.584Z,69.21
2018-07-16T09:13:49.417Z,69.51
2018-07-16T09:14:59.506Z,69.6
2018-07-16T09:16:09.068Z,68.91
2018-07-16T09:17:19.161Z,68.88
2018-07-16T09:18:29.241Z,69.37
2018-07-16T09:19:39.343Z,69.21
2018-07-16T09:20:49.177Z,69.21
2018-07-16T09:21:59.335Z,69.21
2018-07-16T09:23:09.460Z,69.51
2018-07-16T09:24:19.310Z,69.02
2018-07-16T09:25:29.185Z,69.02
2018-07-16T09:26:39.312Z,69.41
2018-07-16T09:27:49.433Z,68.66
2018-07-16T09:28:59.738Z,69.34
2018-07-16T09:30:09.903Z,68.59
2018-07-16T09:31:20.030Z,68.69
2018-07-16T09:32:29.892Z,68.69
2018-07-16T09:33:40.036Z,68.52
2018-07-16T09:34:50.148Z,68.13
2018-07-16T09:36:00.308Z,67.84
2018-07-16T09:37:10.418Z,68.17
2018-07-16T09:38:20.530Z,68.07
2018-07-16T09:39:30.413Z,67.71
2018-07-16T09:40:40.514Z,67.61
2018-07-16T09:41:50.662Z,67.65
2018-07-16T09:43:00.770Z,67.94
2018-07-16T09:44:10.768Z,67.45
2018-07-16T09:45:20.958Z,67.48
2018-07-16T09:46:31.044Z,67.38
2018-07-16T09:47:40.866Z,66.99
2018-07-16T09:48:50.995Z,67.02
2018-07-16T09:50:00.823Z,67.12
2018-07-16T09:51:10.662Z,67.22
2018-07-16T09:52:20.756Z,67.61
2018-07-16T09:53:30.885Z,67.58
2018-07-16T09:54:40.986Z,68.07
2018-07-16T09:55:51.075Z,67.94
2018-07-16T09:57:01.232Z,68.82
2018-07-16T09:58:11.595Z,69.12
2018-07-16T09:59:21.778Z,68.89
2018-07-16T10:00:31.614Z,68.69
2018-07-16T10:01:41.710Z,68.69
2018-07-16T10:02:51.821Z,68.95
2018-07-16T10:04:01.904Z,68.79
2018-07-16T10:05:12.051Z,69.15
2018-07-16T10:06:21.862Z,69.54
2018-07-16T10:07:32.032Z,69.25
2018-07-16T10:08:42.141Z,69.41
2018-07-16T10:09:52.242Z,69.12
2018-07-16T10:11:02.405Z,68.85
2018-07-16T10:12:12.239Z,69.09
2018-07-16T10:13:22.802Z,68.49
2018-07-16T10:14:33.027Z,68.23
2018-07-16T10:15:42.861Z,68.43
2018-07-16T10:16:52.503Z,68.63
2018-07-16T10:18:02.681Z,68.63
2018-07-16T10:19:12.532Z,69.12
2018-07-16T10:20:22.599Z,69.02
2018-07-16T10:21:32.997Z,69.02
2018-07-16T10:22:43.083Z,68.89
2018-07-16T10:23:52.930Z,68.99
2018-07-16T10:25:03.035Z,69.68
2018-07-16T10:26:13.114Z,68.95
2018-07-16T10:27:22.943Z,69.15
2018-07-16T10:28:33.040Z,69.35
2018-07-16T10:29:43.144Z,69.31
2018-07-16T10:30:53.254Z,69.6
2018-07-16T10:32:03.397Z,69.96
2018-07-16T10:33:13.476Z,70.16
2018-07-16T10:34:23.038Z,69.64
2018-07-16T10:35:33.177Z,70.03
2018-07-16T10:36:43.257Z,69.84
2018-07-16T10:37:53.335Z,70
2018-07-16T10:39:03.155Z,70.19
2018-07-16T10:40:13.023Z,70.09
2018-07-16T10:41:23.114Z,70
2018-07-16T10:42:33.607Z,70
2018-07-16T10:43:43.733Z,70.26
2018-07-16T10:44:53.835Z,69.96
2018-07-16T10:46:03.647Z,70.26
2018-07-16T10:47:13.798Z,69.73
2018-07-16T10:48:23.919Z,70.03
2018-07-16T10:49:34.057Z,70.03
2018-07-16T10:50:44.458Z,70.12
2018-07-16T10:51:54.546Z,69.93
2018-07-16T10:53:04.650Z,69.83
2018-07-16T10:54:14.738Z,70.19
2018-07-16T10:55:25.012Z,69.99
2018-07-16T10:56:35.099Z,69.89
2018-07-16T10:57:45.169Z,70.09
2018-07-16T10:58:55.275Z,69.89
2018-07-16T11:00:05.418Z,70.09
2018-07-16T11:01:15.535Z,69.79
2018-07-16T11:02:25.361Z,69.99
2018-07-16T11:03:35.470Z,69.44
2018-07-16T11:04:45.795Z,69.34
2018-07-16T11:05:55.953Z,69.37
2018-07-16T11:07:05.765Z,68.4
2018-07-16T11:08:15.861Z,69.02
2018-07-16T11:09:25.956Z,68.62
2018-07-16T11:10:36.053Z,67.91
2018-07-16T11:11:45.874Z,68.04
2018-07-16T11:12:55.963Z,67.48
2018-07-16T11:14:06.068Z,67.32
2018-07-16T11:15:15.913Z,67.25
2018-07-16T11:16:25.739Z,66.5
2018-07-16T11:17:35.847Z,66.24
2018-07-16T11:18:45.940Z,66.36
2018-07-16T11:19:56.036Z,66.27
2018-07-16T11:21:06.152Z,66.3
2018-07-16T11:22:16.244Z,66.33
2018-07-16T11:23:26.420Z,66.33
2018-07-16T11:24:36.203Z,66.27
2018-07-16T11:25:46.035Z,66.27
2018-07-16T11:26:55.876Z,66.46
2018-07-16T11:28:05.974Z,66.75
2018-07-16T11:29:15.542Z,66.96
2018-07-16T11:30:25.634Z,67.25
2018-07-16T11:31:35.755Z,67.22
2018-07-16T11:32:45.334Z,68.17
2018-07-16T11:33:55.204Z,68.43
2018-07-16T11:35:05.047Z,68.53
2018-07-16T11:36:15.153Z,68.99
2018-07-16T11:37:24.975Z,69.29
2018-07-16T11:38:35.052Z,69.35
2018-07-16T11:39:45.141Z,68.76
2018-07-16T11:40:54.966Z,69.25
2018-07-16T11:42:05.050Z,69.02
2018-07-16T11:43:15.130Z,68.82
2018-07-16T11:44:25.216Z,69.02
2018-07-16T11:45:35.306Z,69.12
2018-07-16T11:46:45.459Z,69.57
2018-07-16T11:47:55.590Z,69.57
2018-07-16T11:49:05.716Z,69.57
2018-07-16T11:50:15.811Z,69.18
2018-07-16T11:51:25.913Z,69.28
2018-07-16T11:52:36.056Z,68.79
2018-07-16T11:53:46.142Z,69.02
2018-07-16T11:54:56.264Z,69.02
2018-07-16T11:56:06.097Z,68.63
2018-07-16T11:57:16.261Z,68.96
2018-07-16T11:58:26.365Z,68.17
2018-07-16T11:59:36.448Z,68.37
2018-07-16T12:00:46.561Z,68.96
2018-07-16T12:01:56.753Z,68.66
2018-07-16T12:03:06.630Z,68.46
2018-07-16T12:04:16.710Z,68.46
2018-07-16T12:05:26.805Z,68.27
2018-07-16T12:06:36.902Z,68.56
2018-07-16T12:07:46.755Z,68.17
2018-07-16T12:08:56.658Z,68.5
2018-07-16T12:10:06.554Z,67.91
2018-07-16T12:11:16.732Z,68.3
2018-07-16T12:12:27.196Z,68.13
2018-07-16T12:13:37.537Z,68.33
2018-07-16T12:14:47.691Z,67.87
2018-07-16T12:15:57.507Z,68.27
2018-07-16T12:17:07.363Z,68.53
2018-07-16T12:18:17.464Z,69.22
2018-07-16T12:19:27.551Z,69.09
2018-07-16T12:20:37.679Z,69.09
2018-07-16T12:21:47.524Z,68.99
2018-07-16T12:22:57.665Z,68.99
2018-07-16T12:24:07.575Z,68.66
2018-07-16T12:25:17.654Z,69.18
2018-07-16T12:26:27.751Z,68.7
2018-07-16T12:27:37.591Z,68.99
2018-07-16T12:28:47.445Z,68.6
2018-07-16T12:29:57.530Z,68.63
2018-07-16T12:31:07.354Z,68.13
2018-07-16T12:32:17.183Z,68.53
2018-07-16T12:33:27.004Z,68.33
2018-07-16T12:34:36.817Z,68.56
2018-07-16T12:35:46.914Z,68.17
2018-07-16T12:36:57.038Z,67.77
2018-07-16T12:38:07.244Z,67.61
2018-07-16T12:39:17.341Z,67.35
2018-07-16T12:40:27.438Z,66.89
2018-07-16T12:41:37.708Z,67.32
2018-07-16T12:42:47.980Z,66.85
2018-07-16T12:43:58.090Z,67.35
2018-07-16T12:45:08.225Z,67.15
2018-07-16T12:46:18.045Z,67.25
2018-07-16T12:47:27.903Z,66.95
2018-07-16T12:48:38.016Z,67.84
2018-07-16T12:49:48.102Z,67.35
2018-07-16T12:50:57.927Z,67.22
2018-07-16T12:52:08.022Z,67.41
2018-07-16T12:53:18.124Z,67.58
2018-07-16T12:54:28.218Z,68.17
2018-07-16T12:55:38.291Z,67.87
2018-07-16T12:56:48.491Z,67.87
2018-07-16T12:57:58.584Z,67.97
2018-07-16T12:59:08.704Z,68.37
2018-07-16T13:00:18.799Z,68.13
2018-07-16T13:01:28.904Z,68.43
2018-07-16T13:02:38.992Z,68.24
2018-07-16T13:03:49.096Z,68.43
2018-07-16T13:04:59.185Z,69.19
2018-07-16T13:06:09.322Z,68.1
2018-07-16T13:07:19.831Z,68.56
2018-07-16T13:08:29.943Z,68.17
2018-07-16T13:09:40.028Z,68.27
2018-07-16T13:10:50.133Z,68.56
2018-07-16T13:11:59.983Z,68.73
2018-07-16T13:13:09.835Z,69.12
2018-07-16T13:14:19.920Z,69.12
2018-07-16T13:15:30.027Z,69.18
2018-07-16T13:16:40.181Z,68.79
2018-07-16T13:17:49.549Z,68.86
2018-07-16T13:18:59.648Z,69.15
2018-07-16T13:20:09.748Z,69.35
2018-07-16T13:21:19.922Z,69.61
2018-07-16T13:22:29.763Z,69.51
2018-07-16T13:23:39.842Z,69.61
2018-07-16T13:24:49.948Z,69.57
2018-07-16T13:25:59.791Z,69.57
2018-07-16T13:27:09.882Z,69.42
2018-07-16T13:28:19.707Z,69.57
2018-07-16T13:29:29.815Z,69.38
2018-07-16T13:30:39.903Z,69.48
2018-07-16T13:31:49.986Z,69.38
2018-07-16T13:33:00.104Z,69.02
2018-07-16T13:34:10.225Z,68.92
2018-07-16T13:35:20.372Z,68.53
2018-07-16T13:36:30.475Z,68.92
2018-07-16T13:37:40.494Z,69.06
2018-07-16T13:38:50.599Z,68.96
2018-07-16T13:40:00.711Z,68.92
2018-07-16T13:41:10.822Z,69.42
2018-07-16T13:42:20.406Z,69.02
2018-07-16T13:43:30.521Z,69.02
2018-07-16T13:44:40.679Z,68.76
2018-07-16T13:45:50.773Z,69.06
2018-07-16T13:47:00.637Z,68.86
2018-07-16T13:48:10.206Z,69.35
2018-07-16T13:49:20.306Z,68.79
2018-07-16T13:50:31.106Z,68.76
2018-07-16T13:51:40.940Z,69.29
2018-07-16T13:52:50.844Z,68.79
2018-07-16T13:54:01.073Z,68.66
2018-07-16T13:55:11.211Z,69.54
2018-07-16T13:56:21.369Z,69.54
2018-07-16T13:57:31.489Z,69.22
2018-07-16T13:58:41.588Z,69.9
2018-07-16T13:59:51.432Z,70.07
2018-07-16T14:01:01.522Z,69.97
2018-07-16T14:02:11.917Z,70.36
2018-07-16T14:03:22.196Z,70.26
2018-07-16T14:04:32.107Z,70.26
2018-07-16T14:05:42.219Z,70.26
2018-07-16T14:06:52.054Z,69.78
2018-07-16T14:08:02.209Z,69.97
2018-07-16T14:09:12.350Z,69.97
2018-07-16T14:10:22.459Z,70.03
2018-07-16T14:11:32.562Z,69.84
2018-07-16T14:12:41.876Z,70.13
2018-07-16T14:13:53.021Z,70.33
2018-07-16T14:15:03.152Z,70.68
2018-07-16T14:16:13.226Z,70.85
2018-07-16T14:17:23.046Z,70.56
2018-07-16T14:18:33.126Z,71.11
2018-07-16T14:19:42.694Z,71.11
2018-07-16T14:20:52.787Z,71.41
2018-07-16T14:22:02.859Z,70.62
2018-07-16T14:23:12.938Z,71.01
2018-07-16T14:24:22.830Z,70.91
2018-07-16T14:25:32.936Z,71.21
2018-07-16T14:26:43.043Z,71.11
2018-07-16T14:27:53.132Z,71.21
2018-07-16T14:29:03.218Z,70.59
2018-07-16T14:30:13.325Z,70.48
2018-07-16T14:31:23.366Z,69.9
2018-07-16T14:32:33.460Z,70.19
2018-07-16T14:33:43.315Z,69.6
2018-07-16T14:34:53.429Z,70
2018-07-16T14:36:03.559Z,69.8
2018-07-16T14:37:13.655Z,70.09
2018-07-16T14:38:23.736Z,69.8
2018-07-16T14:39:34.262Z,70.06
2018-07-16T14:40:44.489Z,70.12
2018-07-16T14:41:54.315Z,70.32
2018-07-16T14:43:04.427Z,70.58
2018-07-16T14:44:14.541Z,70.68
2018-07-16T14:45:24.373Z,71.42
2018-07-16T14:46:34.696Z,71.3
2018-07-16T14:47:44.929Z,71.55
2018-07-16T14:48:55.105Z,71.65
2018-07-16T14:50:05.210Z,71.12
2018-07-16T14:51:15.373Z,71.42
2018-07-16T14:52:25.468Z,71.58
2018-07-16T14:53:35.321Z,72.17
2018-07-16T14:54:45.420Z,71.55
2018-07-16T14:55:55.513Z,72.58
2018-07-16T14:57:05.761Z,72.58
2018-07-16T14:58:16.174Z,72.39
2018-07-16T14:59:26.264Z,72.35
2018-07-16T15:00:36.377Z,72.55
2018-07-16T15:01:46.464Z,72.25
2018-07-16T15:02:56.573Z,72.31
2018-07-16T15:04:06.669Z,72.51
2018-07-16T15:05:16.764Z,72.51
2018-07-16T15:06:26.396Z,72.22
2018-07-16T15:07:36.489Z,72.31
2018-07-16T15:08:46.324Z,72.22
2018-07-16T15:09:56.406Z,72.47
2018-07-16T15:11:06.261Z,72.96
2018-07-16T15:12:16.373Z,72.54
2018-07-16T15:13:26.206Z,72.83
2018-07-16T15:14:36.284Z,72.7
2018-07-16T15:15:46.402Z,72.31
2018-07-16T15:16:56.487Z,72.8
2018-07-16T15:18:06.587Z,73.28
2018-07-16T15:19:16.418Z,73.34
2018-07-16T15:20:26.788Z,73.4
2018-07-16T15:21:38.626Z,73.11
2018-07-16T15:22:49.610Z,73.3
2018-07-16T15:23:59.715Z,73.3
2018-07-16T15:25:09.818Z,73.21
2018-07-16T15:26:19.931Z,72.33
2018-07-16T15:27:29.782Z,72.24
2018-07-16T15:28:39.617Z,72.59
2018-07-16T15:29:49.350Z,72.33
2018-07-16T15:30:59.511Z,72.72
2018-07-16T15:32:09.622Z,72.59
2018-07-16T15:33:19.501Z,72.01
2018-07-16T15:34:29.941Z,72.01
2018-07-16T15:35:40.243Z,71.85
2018-07-16T15:36:50.608Z,71.66